Omni B763 at Shannon on Mar 8th 2020, hard landing

Last Update: April 12, 2020 / 16:45:08 GMT/Zulu time

Bookmark this article
Incident Facts

Date of incident
Mar 8, 2020

Classification
Accident

Flight number
OY-346

Destination
Shannon, Ireland

Aircraft Registration
N477AX

Aircraft Type
Boeing 767-300

ICAO Type Designator
B763

Airport ICAO Code
EINN

An Omni Air Boeing 767-300, registration N477AX performing flight OY-346 from Bangor,ME (USA) to Shannon (Ireland) with 181 people on board, landed on Shannon's runway 24 at 19:56L (19:56Z) but bounced and touched down hard a second time, tower had reported winds from 270 degrees at 20 knots maximum 35 knots and advised of turbulence at the touch down zone. The aircraft rolled out without further incident and taxied to the apron. While taxiing to the apron, tower inquired whether they had any turbulence over the touchdown zone, which the crew affirmed. There were no injuries, the aircraft sustained substantial damage however.

A post flight inspection revealed creases all around the forward fuselage.

Ireland's Air Accident Investigation Unit (AAIU) dispatched investigators on site.

The occurrence aircraft is still on the ground in Shannon 49 hours after arrival.

On Mar 10th 2020 The Aviation Herald received three more photos and information that a Boeing response team is about to get the repair of the aircraft organised.

On Apr 12th 2020 the NTSB reported the occurrence was rated an accident and is being investigated by Ireland's AAIU, there were no injuries among the 181 people on board.

Metars:
EINN 082100Z 27022KT 9999 FEW009 BKN018CB 06/04 Q1006 TEMPO 4000 SHRA=
EINN 082030Z 26017KT 9999 FEW009 SCT018CB BKN045 07/04 Q1006 TEMPO 4000 SHRA=
EINN 082000Z 26023G38KT 6000 -SHRA FEW009 BKN018CB BKN045 07/04 Q1005 TEMPO 4000 BKN045=
EINN 081930Z 26021G32KT 9999 FEW009 FEW020CB BKN060 07/04 Q1005 TEMPO 4000 SHRA=
EINN 081900Z 27018G32KT 9999 FEW009 FEW020CB 07/03 Q1004 TEMPO 4000 SHRA=
EINN 081830Z 26019KT 9999 FEW009 SCT018CB 07/03 Q1004 TEMPO 4000 SHRA=
EINN 081800Z 26027G45KT 9999 -SHRA FEW008 SCT018CB 07/03 Q1003 NOSIG=
EINN 081730Z 27016KT 9999 FEW008 SCT018CB 07/04 Q1003 NOSIG=
EINN 081700Z 25020KT 9999 FEW008 FEW018CB 07/03 Q1003 NOSIG=
EINN 081630Z 26018KT 9999 FEW008 FEW018CB SCT040 07/03 Q1003 NOSIG=
EINN 081600Z 26020KT 9999 -SHRA FEW008 FEW018CB SCT035 08/03 Q1002 NOSIG=
EINN 081530Z 25014KT 9999 FEW008 FEW018CB SCT035 07/04 Q1002 NOSIG=
EINN 081500Z 27031KT 8000 -SHRA FEW008 SCT018CB BKN024 07/04 Q1002 NOSIG=
Incident Facts

Date of incident
Mar 8, 2020

Classification
Accident

Flight number
OY-346

Destination
Shannon, Ireland

Aircraft Registration
N477AX

Aircraft Type
Boeing 767-300

ICAO Type Designator
B763

Airport ICAO Code
EINN

This article is published under license from Avherald.com. © of text by Avherald.com.
Article source

You can read 4 more free articles without a subscription.

Subscribe now and continue reading without any limits!

Are you a subscriber?
Login
Subscribe

Read unlimited articles and receive our daily update briefing. Gain better insights into what is happening in commercial aviation safety.

Free newsletter

Want to know more and stay ahead? Get our free weekly newsletter and join 4917 existing subscribers.

By subscribing, you accept our terms and conditions and confirm that you've read our privacy policy.

Send tip

Support AeroInside by sending a small tip amount.

Related articles

Newest articles

Subscribe today

Are you researching aviation incidents? Get access to AeroInside Insights, unlimited read access and receive the daily newsletter.

Pick your plan and subscribe

Partner

Blockaviation logo

A new way to document and demonstrate airworthiness compliance and aircraft value. Find out more.

Virtual Speech logo

ELITE Simulation Solutions is a leading global provider of Flight Simulation Training Devices, IFR training software as well as flight controls and related services. Find out more.

Get updates

Never miss an article from AeroInside. Subscribe to our free weekly newsletter and join 4917 existing subscribers.

By subscribing, you accept our terms and conditions and that you've read our privacy policy.

AeroInside Blog
Popular aircraft
Airbus A320
Boeing 737-800
Boeing 737-800 MAX
Popular airlines
American Airlines
United
Delta
Air Canada
Lufthansa
British Airways